Time;durP1;ratioP1;P1;durP2;ratioP2;P2;SDS_P1;SDS_P2;PMS_P1;PMS_P2;Temp;Humidity;BMP_temperature;BMP_pressure;BME280_temperature;BME280_humidity;BME280_pressure;Samples;Min_cycle;Max_cycle;Signal;HPM_P1;HPM_P2
2021/01/29 00:00:05;;;;;;;0.90;0.80;;;10.60;93.30;;;;;;5042458;28;20238;-80
2021/01/29 00:02:33;;;;;;;1.05;0.95;;;10.60;93.70;;;;;;5048893;28;20670;-81
2021/01/29 00:04:59;;;;;;;1.45;0.75;;;10.60;94.20;;;;;;5038673;28;20208;-80
2021/01/29 00:07:25;;;;;;;0.90;0.90;;;10.50;94.60;;;;;;5037156;28;20187;-80
2021/01/29 00:09:54;;;;;;;2.47;0.93;;;10.50;95.10;;;;;;5032888;28;20622;-81
2021/01/29 00:12:20;;;;;;;1.05;0.95;;;10.50;95.10;;;;;;5032892;28;20200;-80
2021/01/29 00:14:47;;;;;;;1.40;0.90;;;10.50;95.10;;;;;;5030169;28;20247;-81
2021/01/29 00:17:13;;;;;;;2.60;1.30;;;10.50;95.40;;;;;;5024008;28;20215;-80
2021/01/29 00:19:41;;;;;;;0.60;0.60;;;10.50;95.60;;;;;;5039174;28;20666;-81
2021/01/29 00:22:08;;;;;;;0.95;0.85;;;10.50;95.80;;;;;;5054977;28;20183;-78
2021/01/29 00:24:34;;;;;;;2.30;1.10;;;10.50;96.10;;;;;;5051751;28;20214;-82
2021/01/29 00:27:01;;;;;;;0.90;0.80;;;10.50;96.40;;;;;;5042938;28;20207;-79
2021/01/29 00:29:27;;;;;;;2.47;0.93;;;10.50;96.50;;;;;;5025888;28;20204;-80
2021/01/29 00:31:54;;;;;;;1.17;0.90;;;10.50;96.60;;;;;;5021737;28;20243;-82
2021/01/29 00:34:20;;;;;;;1.10;1.05;;;10.50;96.80;;;;;;5037180;28;20192;-79
2021/01/29 00:36:48;;;;;;;1.10;0.98;;;10.60;96.80;;;;;;5036459;28;20191;-80
2021/01/29 00:42:47;;;;;;;1.48;1.08;;;10.50;97.90;;;;;;5052593;28;20218;-78
2021/01/29 00:45:15;;;;;;;1.40;1.08;;;10.40;99.10;;;;;;5055116;28;20201;-78
2021/01/29 00:47:42;;;;;;;1.10;1.00;;;10.40;99.90;;;;;;5059056;28;20199;-79
2021/01/29 00:50:10;;;;;;;1.77;1.13;;;10.40;99.90;;;;;;5059752;28;20238;-78
2021/01/29 00:52:37;;;;;;;1.85;1.55;;;10.30;99.90;;;;;;5059953;28;20198;-78
2021/01/29 00:55:05;;;;;;;1.23;1.00;;;10.30;99.90;;;;;;5053156;28;20210;-82
2021/01/29 00:57:31;;;;;;;1.30;1.08;;;10.40;99.90;;;;;;5055888;28;20222;-80
2021/01/29 00:59:58;;;;;;;1.13;1.10;;;10.40;99.90;;;;;;5059920;28;20211;-79
2021/01/29 01:02:24;;;;;;;1.40;1.30;;;10.40;99.90;;;;;;5059159;28;20210;-79
2021/01/29 01:04:51;;;;;;;2.08;1.38;;;10.40;99.90;;;;;;5054598;28;20199;-81
2021/01/29 01:07:17;;;;;;;1.40;1.15;;;10.40;99.90;;;;;;5049354;28;20203;-83
2021/01/29 01:09:47;;;;;;;1.25;1.15;;;10.40;99.90;;;;;;5048793;28;20653;-81
2021/01/29 01:12:14;;;;;;;1.70;1.33;;;10.40;99.90;;;;;;5046482;28;20207;-82
2021/01/29 01:14:40;;;;;;;2.78;1.10;;;10.40;99.90;;;;;;5045923;28;20295;-82
2021/01/29 01:17:07;;;;;;;2.05;1.40;;;10.40;99.90;;;;;;5045925;28;20211;-80
2021/01/29 01:19:35;;;;;;;1.67;1.52;;;10.40;99.90;;;;;;5032179;28;20208;-81
2021/01/29 01:22:02;;;;;;;1.40;1.30;;;10.40;99.90;;;;;;5031062;28;20275;-82
2021/01/29 01:24:29;;;;;;;2.33;1.30;;;10.40;99.90;;;;;;5046643;28;20263;-80
2021/01/29 01:26:56;;;;;;;1.85;1.10;;;10.40;99.90;;;;;;5052175;28;20359;-81
2021/01/29 01:29:23;;;;;;;1.27;1.17;;;10.40;99.90;;;;;;5051468;28;20207;-81
2021/01/29 01:31:50;;;;;;;0.70;0.70;;;10.40;99.90;;;;;;5052005;28;20227;-82
2021/01/29 01:34:16;;;;;;;1.35;0.80;;;10.40;99.90;;;;;;5046723;28;20203;-84
2021/01/29 01:36:42;;;;;;;1.27;1.17;;;10.40;99.90;;;;;;5032245;28;20200;-80
2021/01/29 01:39:09;;;;;;;0.80;0.80;;;10.40;99.90;;;;;;5033910;28;20337;-81
2021/01/29 01:41:35;;;;;;;0.80;0.80;;;10.40;99.90;;;;;;5026949;28;20227;-81
2021/01/29 01:44:31;;;;;;;1.23;1.13;;;10.50;99.90;;;;;;5030489;28;20251;-83
2021/01/29 01:46:59;;;;;;;0.73;0.73;;;10.40;99.90;;;;;;5032196;28;20185;-80
2021/01/29 01:49:27;;;;;;;0.77;0.70;;;10.30;99.90;;;;;;5030402;28;20652;-82
2021/01/29 01:52:00;;;;;;;1.10;1.00;;;10.30;99.90;;;;;;5028450;28;20592;-81
2021/01/29 01:54:45;;;;;;;0.90;0.85;;;10.30;99.90;;;;;;5029786;28;20227;-82
2021/01/29 01:57:14;;;;;;;1.23;1.05;;;10.40;99.90;;;;;;5028578;28;20231;-81
2021/01/29 01:59:45;;;;;;;1.38;1.20;;;10.40;99.90;;;;;;5048988;28;20259;-83
2021/01/29 02:02:14;;;;;;;0.88;0.88;;;10.40;99.90;;;;;;5050689;28;20237;-80
2021/01/29 02:04:44;;;;;;;0.75;0.75;;;10.40;99.90;;;;;;5036346;28;20253;-79
2021/01/29 02:07:22;;;;;;;2.30;1.15;;;10.50;99.90;;;;;;5038034;28;20215;-79
2021/01/29 02:09:50;;;;;;;0.90;0.90;;;10.50;99.90;;;;;;5056126;28;20226;-82
2021/01/29 02:12:18;;;;;;;0.80;0.80;;;10.50;99.90;;;;;;5047295;28;20210;-80
2021/01/29 02:14:45;;;;;;;1.10;0.93;;;10.50;99.90;;;;;;5047181;28;20199;-80
2021/01/29 02:17:22;;;;;;;3.08;0.75;;;10.50;99.90;;;;;;5037692;28;20207;-80
2021/01/29 02:20:32;;;;;;;0.77;0.75;;;10.50;99.90;;;;;;5029521;28;20208;-80
2021/01/29 02:23:36;;;;;;;0.70;0.70;;;10.50;99.90;;;;;;5031649;28;20267;-81
2021/01/29 02:26:47;;;;;;;0.75;0.75;;;10.50;99.90;;;;;;5039968;28;20216;-80
2021/01/29 02:29:48;;;;;;;0.80;0.77;;;10.50;99.90;;;;;;5051613;28;20234;-80
2021/01/29 02:32:49;;;;;;;1.90;0.70;;;10.60;99.90;;;;;;5031794;28;20231;-81
2021/01/29 02:35:54;;;;;;;0.95;0.95;;;10.60;99.90;;;;;;5034956;28;20188;-80
2021/01/29 02:38:53;;;;;;;0.50;0.50;;;10.60;99.90;;;;;;5023296;28;20200;-82
2021/01/29 02:41:34;;;;;;;0.60;0.60;;;10.60;99.90;;;;;;5032330;28;20212;-82
2021/01/29 02:44:12;;;;;;;1.05;0.95;;;10.60;99.90;;;;;;5037238;28;20227;-80
2021/01/29 02:46:49;;;;;;;0.50;0.47;;;10.70;99.90;;;;;;5038666;28;20188;-81
2021/01/29 02:49:24;;;;;;;0.60;0.50;;;10.70;99.90;;;;;;5037797;28;20200;-81
2021/01/29 02:51:58;;;;;;;1.73;0.90;;;10.70;99.90;;;;;;5037232;28;20219;-81
2021/01/29 02:54:37;;;;;;;0.50;0.50;;;10.70;99.90;;;;;;5037100;28;20196;-81
2021/01/29 02:57:10;;;;;;;0.40;0.40;;;10.70;99.90;;;;;;5038527;28;20188;-80
2021/01/29 02:59:41;;;;;;;0.50;0.50;;;10.70;99.90;;;;;;5038559;28;20224;-81
2021/01/29 03:02:13;;;;;;;0.52;0.52;;;10.70;99.90;;;;;;5038302;28;20191;-81
2021/01/29 03:04:48;;;;;;;0.60;0.60;;;10.80;99.90;;;;;;5038673;28;20219;-80
2021/01/29 03:07:20;;;;;;;0.52;0.52;;;10.80;99.90;;;;;;5038183;28;20211;-82
2021/01/29 03:09:53;;;;;;;1.35;0.70;;;10.80;99.90;;;;;;5037501;28;20192;-81
2021/01/29 03:12:25;;;;;;;0.50;0.50;;;10.80;99.90;;;;;;5037197;28;20211;-80
2021/01/29 03:14:58;;;;;;;0.65;0.60;;;10.90;99.90;;;;;;5036733;28;20250;-81
2021/01/29 03:17:29;;;;;;;0.60;0.60;;;10.90;99.90;;;;;;5036422;28;20238;-80
2021/01/29 03:20:01;;;;;;;0.93;0.50;;;10.90;99.90;;;;;;5037247;28;20231;-81
2021/01/29 03:22:32;;;;;;;0.60;0.60;;;10.90;99.60;;;;;;5036018;28;20204;-81
2021/01/29 03:25:04;;;;;;;1.38;0.80;;;10.90;99.30;;;;;;5032063;28;20242;-80
2021/01/29 03:27:38;;;;;;;1.40;0.40;;;10.80;99.10;;;;;;5023789;28;20559;-80
2021/01/29 03:30:10;;;;;;;0.40;0.40;;;10.80;98.90;;;;;;5029071;28;20234;-81
2021/01/29 03:32:39;;;;;;;1.35;0.73;;;10.80;98.70;;;;;;5027735;28;20192;-82
2021/01/29 03:35:12;;;;;;;0.50;0.50;;;10.80;98.70;;;;;;5034857;28;20204;-90
2021/01/29 03:37:43;;;;;;;0.65;0.55;;;10.80;98.70;;;;;;5038770;28;20191;-88
2021/01/29 03:40:10;;;;;;;1.83;0.70;;;10.80;98.70;;;;;;5038214;28;20215;-90
2021/01/29 03:42:45;;;;;;;2.08;0.50;;;10.70;98.70;;;;;;5037690;28;20215;-87
2021/01/29 03:45:18;;;;;;;1.52;0.60;;;10.70;99.40;;;;;;5038399;28;20210;-91
2021/01/29 03:47:55;;;;;;;0.85;0.70;;;10.60;99.90;;;;;;5038526;28;20199;-89
2021/01/29 03:50:44;;;;;;;0.50;0.40;;;10.50;99.90;;;;;;5038207;28;20230;-81
2021/01/29 03:53:29;;;;;;;1.20;0.47;;;10.50;99.90;;;;;;5037151;28;20236;-81
2021/01/29 03:56:06;;;;;;;0.77;0.55;;;10.40;99.90;;;;;;5032027;28;20204;-80
2021/01/29 03:58:40;;;;;;;2.08;0.40;;;10.30;99.90;;;;;;5031196;28;20224;-80
2021/01/29 04:01:16;;;;;;;0.57;0.57;;;10.30;99.90;;;;;;5030234;28;20223;-84
2021/01/29 04:03:49;;;;;;;0.50;0.40;;;10.30;99.90;;;;;;5034002;28;20242;-83
2021/01/29 04:06:22;;;;;;;0.55;0.50;;;10.20;99.90;;;;;;5033829;28;20228;-81
2021/01/29 04:09:02;;;;;;;0.70;0.60;;;10.20;99.90;;;;;;5030946;28;20235;-80
2021/01/29 04:11:37;;;;;;;3.42;0.43;;;10.20;99.90;;;;;;5031547;28;20228;-80
2021/01/29 04:14:10;;;;;;;0.52;0.45;;;10.20;99.90;;;;;;5030013;28;20200;-80
2021/01/29 04:16:39;;;;;;;0.50;0.50;;;10.10;99.90;;;;;;5030573;28;20652;-83
2021/01/29 04:19:13;;;;;;;0.73;0.30;;;10.10;99.90;;;;;;5032244;28;20207;-80
2021/01/29 04:21:47;;;;;;;0.40;0.40;;;10.10;99.90;;;;;;5036395;28;20207;-79
2021/01/29 04:24:19;;;;;;;0.30;0.30;;;10.10;99.90;;;;;;5029560;28;20232;-80
2021/01/29 04:26:52;;;;;;;0.40;0.30;;;10.10;99.90;;;;;;5020454;28;20218;-80
2021/01/29 04:29:24;;;;;;;0.75;0.40;;;10.10;99.90;;;;;;5018343;28;20211;-82
2021/01/29 04:31:55;;;;;;;0.40;0.40;;;10.10;99.90;;;;;;5017656;28;20232;-82
2021/01/29 04:34:26;;;;;;;0.60;0.60;;;10.10;99.90;;;;;;5016764;28;20211;-81
2021/01/29 04:36:55;;;;;;;0.40;0.40;;;10.00;99.90;;;;;;5029301;28;20299;-81
2021/01/29 04:39:26;;;;;;;0.32;0.32;;;10.10;99.90;;;;;;5027547;28;20475;-81
2021/01/29 04:42:03;;;;;;;0.47;0.35;;;10.10;99.90;;;;;;5021274;28;20227;-81
2021/01/29 04:44:41;;;;;;;0.43;0.43;;;10.20;99.90;;;;;;5020662;28;20243;-81
2021/01/29 04:47:30;;;;;;;0.32;0.32;;;10.10;99.90;;;;;;5020535;28;20648;-82
2021/01/29 04:50:19;;;;;;;2.90;0.40;;;10.20;99.60;;;;;;5038936;23;20299;-82
2021/01/29 04:53:23;;;;;;;1.75;0.50;;;10.30;98.80;;;;;;4976914;28;20700;-82
2021/01/29 04:56:26;;;;;;;0.77;0.43;;;10.20;98.50;;;;;;4993053;28;20203;-81
2021/01/29 04:59:11;;;;;;;0.57;0.40;;;10.30;98.60;;;;;;5023604;28;20216;-80
2021/01/29 05:01:54;;;;;;;1.42;0.50;;;10.30;99.10;;;;;;5001385;28;20224;-81
2021/01/29 05:05:02;;;;;;;1.33;0.47;;;10.20;99.90;;;;;;4997000;28;20261;-80
2021/01/29 05:07:58;;;;;;;1.60;0.50;;;10.20;99.90;;;;;;4958778;29;20209;-81
2021/01/29 05:10:50;;;;;;;3.15;0.40;;;10.20;99.90;;;;;;4964918;28;20316;-80
2021/01/29 05:13:42;;;;;;;0.90;0.60;;;10.20;99.90;;;;;;4977941;28;20206;-81
2021/01/29 05:16:26;;;;;;;0.32;0.30;;;10.20;99.90;;;;;;4994320;28;20205;-79
2021/01/29 05:19:29;;;;;;;2.47;0.32;;;10.20;99.90;;;;;;5002108;28;20205;-81
2021/01/29 05:22:21;;;;;;;1.45;0.60;;;10.10;99.90;;;;;;4971225;28;20333;-80
2021/01/29 05:25:09;;;;;;;0.73;0.50;;;10.10;99.90;;;;;;4993171;28;20235;-80
2021/01/29 05:28:04;;;;;;;0.30;0.30;;;10.10;99.90;;;;;;4996846;28;20255;-80
2021/01/29 05:30:46;;;;;;;0.40;0.40;;;10.10;99.90;;;;;;4935866;28;20230;-81
2021/01/29 05:33:36;;;;;;;1.20;0.50;;;10.10;99.90;;;;;;4965616;28;20646;-80
2021/01/29 05:36:14;;;;;;;1.92;0.50;;;10.10;99.90;;;;;;5000189;28;20239;-79
2021/01/29 05:38:58;;;;;;;0.47;0.47;;;10.10;99.90;;;;;;4997983;28;20201;-81
2021/01/29 05:41:53;;;;;;;1.40;0.50;;;10.20;99.90;;;;;;4979384;28;20300;-81
2021/01/29 05:45:02;;;;;;;0.77;0.50;;;10.20;99.90;;;;;;4981065;28;20252;-81
2021/01/29 05:48:00;;;;;;;0.60;0.60;;;10.10;99.90;;;;;;4981989;28;20208;-80
2021/01/29 05:50:39;;;;;;;0.40;0.40;;;10.20;99.90;;;;;;5002468;28;20322;-80
2021/01/29 05:53:29;;;;;;;0.40;0.38;;;10.30;99.90;;;;;;5006117;28;20213;-83
2021/01/29 05:56:01;;;;;;;1.75;0.50;;;10.30;99.90;;;;;;4967974;29;20273;-81
2021/01/29 05:58:57;;;;;;;0.60;0.60;;;10.40;99.90;;;;;;4971560;28;20198;-81
2021/01/29 06:01:47;;;;;;;1.02;0.60;;;10.30;99.90;;;;;;4990985;28;20300;-82
2021/01/29 06:04:40;;;;;;;0.52;0.40;;;10.40;99.90;;;;;;4998559;28;20267;-82
2021/01/29 06:07:46;;;;;;;1.02;0.70;;;10.40;99.90;;;;;;5000489;28;20572;-81
2021/01/29 06:10:40;;;;;;;0.77;0.38;;;10.30;99.90;;;;;;4981819;28;20233;-81
2021/01/29 06:13:35;;;;;;;0.50;0.50;;;10.30;99.90;;;;;;4981049;28;20202;-81
2021/01/29 06:16:30;;;;;;;0.82;0.45;;;10.20;99.90;;;;;;4980237;28;20324;-81
2021/01/29 06:19:18;;;;;;;0.80;0.52;;;10.20;99.90;;;;;;4985384;28;20247;-82
2021/01/29 06:22:00;;;;;;;0.70;0.50;;;10.20;99.90;;;;;;4980772;28;20236;-81
2021/01/29 06:24:56;;;;;;;2.58;0.50;;;10.10;99.90;;;;;;4985174;28;20260;-83
2021/01/29 06:28:00;;;;;;;0.30;0.30;;;10.10;99.90;;;;;;4985169;28;20712;-82
2021/01/29 06:30:45;;;;;;;1.30;0.70;;;10.20;99.50;;;;;;5000566;28;20372;-82
2021/01/29 06:33:50;;;;;;;0.60;0.50;;;10.20;98.80;;;;;;4992166;28;20226;-83
2021/01/29 06:36:38;;;;;;;1.25;0.50;;;10.20;98.50;;;;;;4982621;28;20236;-82
2021/01/29 06:39:18;;;;;;;1.80;0.65;;;10.20;97.50;;;;;;5000537;28;20640;-83
2021/01/29 06:42:04;;;;;;;0.63;0.52;;;10.20;96.40;;;;;;5002588;28;20228;-80
2021/01/29 06:45:09;;;;;;;1.88;1.10;;;10.20;95.80;;;;;;4960246;28;20233;-81
2021/01/29 06:48:08;;;;;;;0.82;0.50;;;10.20;95.00;;;;;;4930928;29;20278;-80
2021/01/29 06:51:14;;;;;;;1.75;0.50;;;10.20;94.20;;;;;;4948308;28;20238;-80
2021/01/29 06:54:05;;;;;;;0.73;0.40;;;10.20;93.20;;;;;;4977176;28;20201;-81
2021/01/29 06:57:02;;;;;;;0.93;0.60;;;10.30;91.80;;;;;;4983342;28;20737;-79
2021/01/29 06:59:54;;;;;;;1.20;0.52;;;10.30;91.40;;;;;;4997985;28;20189;-80
2021/01/29 07:02:49;;;;;;;0.60;0.60;;;10.20;90.60;;;;;;4998674;28;20645;-80
2021/01/29 07:05:39;;;;;;;0.60;0.35;;;10.20;90.30;;;;;;5000593;28;20197;-79
2021/01/29 07:08:29;;;;;;;0.47;0.47;;;10.30;90.20;;;;;;4997989;28;20312;-80
2021/01/29 07:11:31;;;;;;;0.75;0.50;;;10.30;90.20;;;;;;4980835;28;20663;-80
2021/01/29 07:14:17;;;;;;;1.10;0.60;;;10.20;91.00;;;;;;4986459;28;20217;-78
2021/01/29 07:17:06;;;;;;;0.85;0.40;;;10.30;91.30;;;;;;4984340;28;20204;-81
2021/01/29 07:20:05;;;;;;;2.75;0.80;;;10.30;89.90;;;;;;4978953;28;20332;-80
2021/01/29 07:22:57;;;;;;;3.92;0.82;;;10.30;87.80;;;;;;4979650;28;20346;-81
2021/01/29 07:25:32;;;;;;;0.40;0.40;;;10.30;87.70;;;;;;4984632;28;20240;-80
2021/01/29 07:28:18;;;;;;;1.25;0.68;;;10.30;86.10;;;;;;4993610;28;20201;-81
2021/01/29 07:31:02;;;;;;;2.67;0.55;;;10.40;85.00;;;;;;4996626;28;20229;-81
2021/01/29 07:33:33;;;;;;;0.80;0.80;;;10.40;85.00;;;;;;5005939;28;20196;-84
2021/01/29 07:36:25;;;;;;;1.88;0.60;;;10.40;84.20;;;;;;5016742;28;20205;-84
2021/01/29 07:39:27;;;;;;;0.63;0.50;;;10.40;83.70;;;;;;5003523;28;20264;-81
2021/01/29 07:42:08;;;;;;;1.05;0.73;;;10.40;84.10;;;;;;4999759;28;20236;-80
2021/01/29 07:44:48;;;;;;;1.85;0.47;;;10.70;81.50;;;;;;5002065;28;20220;-78
2021/01/29 07:47:22;;;;;;;1.88;0.68;;;10.80;79.10;;;;;;4989594;28;20224;-81
2021/01/29 07:50:05;;;;;;;0.40;0.40;;;10.70;78.80;;;;;;5016326;28;20287;-86
2021/01/29 07:52:44;;;;;;;0.77;0.63;;;10.70;78.20;;;;;;4996567;28;20272;-81
2021/01/29 07:55:22;;;;;;;0.75;0.55;;;10.60;78.60;;;;;;4997317;28;20222;-85
2021/01/29 07:58:14;;;;;;;1.20;0.43;;;10.60;78.40;;;;;;4997522;28;20268;-82
2021/01/29 08:01:10;;;;;;;0.60;0.57;;;10.60;78.90;;;;;;4996010;28;20255;-85
2021/01/29 08:04:14;;;;;;;1.30;0.80;;;10.60;80.10;;;;;;4993418;28;20213;-85
2021/01/29 08:06:47;;;;;;;0.60;0.50;;;10.60;80.00;;;;;;4988960;28;20268;-83
2021/01/29 08:09:21;;;;;;;4.55;0.52;;;10.70;80.10;;;;;;4989079;28;20190;-84
2021/01/29 08:11:52;;;;;;;0.60;0.60;;;10.70;79.30;;;;;;4994817;28;20288;-84
2021/01/29 08:14:43;;;;;;;0.40;0.40;;;10.70;79.50;;;;;;4997909;28;20192;-84
2021/01/29 08:17:22;;;;;;;1.83;0.60;;;10.70;80.50;;;;;;4981435;28;20666;-83
2021/01/29 08:20:00;;;;;;;0.73;0.45;;;10.60;82.00;;;;;;4982083;28;20208;-81
2021/01/29 08:22:49;;;;;;;0.50;0.50;;;10.60;83.50;;;;;;4985953;28;20217;-83
2021/01/29 08:25:37;;;;;;;0.63;0.40;;;10.50;85.10;;;;;;4980972;28;20201;-83
2021/01/29 08:28:36;;;;;;;0.50;0.50;;;10.50;85.30;;;;;;4978172;28;20213;-84
2021/01/29 08:31:34;;;;;;;1.15;0.63;;;10.60;85.80;;;;;;4973331;28;20260;-83
2021/01/29 08:34:19;;;;;;;1.48;0.50;;;10.60;85.30;;;;;;4940212;28;20210;-84
2021/01/29 08:36:56;;;;;;;0.80;0.65;;;10.70;84.50;;;;;;4969431;29;20197;-84
2021/01/29 08:39:27;;;;;;;1.00;0.90;;;10.70;83.50;;;;;;4958537;29;20265;-84
2021/01/29 08:42:04;;;;;;;3.58;0.60;;;10.70;81.10;;;;;;4971771;28;20216;-84
2021/01/29 08:44:53;;;;;;;1.50;0.80;;;10.80;78.70;;;;;;4998678;28;20262;-83
2021/01/29 08:47:30;;;;;;;0.77;0.50;;;10.80;77.00;;;;;;4968541;28;20224;-84
2021/01/29 08:50:07;;;;;;;1.65;0.90;;;10.90;77.10;;;;;;4999438;28;20215;-84
2021/01/29 08:53:03;;;;;;;3.35;1.10;;;10.90;77.40;;;;;;4995299;28;20224;-84
2021/01/29 08:55:48;;;;;;;0.98;0.50;;;10.90;75.90;;;;;;4981305;28;20189;-84
2021/01/29 08:58:25;;;;;;;1.55;0.65;;;11.00;73.50;;;;;;4981504;28;20201;-82
2021/01/29 09:01:00;;;;;;;4.32;0.80;;;11.10;71.00;;;;;;4996119;28;20224;-80
2021/01/29 09:03:33;;;;;;;4.70;1.02;;;11.20;68.70;;;;;;4997204;28;20231;-81
2021/01/29 09:06:17;;;;;;;4.00;1.08;;;11.40;68.80;;;;;;4988514;28;20285;-81
2021/01/29 09:08:44;;;;;;;4.40;0.60;;;11.40;66.50;;;;;;4981946;28;20217;-81
2021/01/29 09:11:18;;;;;;;1.67;0.90;;;11.50;66.20;;;;;;4987407;28;20225;-82
2021/01/29 09:13:54;;;;;;;1.13;0.80;;;11.50;66.20;;;;;;4981730;28;20263;-81
2021/01/29 09:16:25;;;;;;;1.90;0.80;;;11.50;66.00;;;;;;4967313;28;20253;-83
2021/01/29 09:18:57;;;;;;;3.97;1.00;;;11.40;67.30;;;;;;4983301;28;20209;-81
2021/01/29 09:21:29;;;;;;;3.75;1.02;;;11.40;67.80;;;;;;4983850;28;20217;-81
2021/01/29 09:24:05;;;;;;;3.65;1.30;;;11.50;66.90;;;;;;4978535;28;20659;-83
2021/01/29 09:26:37;;;;;;;3.13;1.02;;;11.60;66.50;;;;;;4981834;28;20216;-84
2021/01/29 09:29:15;;;;;;;3.85;1.60;;;11.50;66.20;;;;;;4985457;28;20253;-82
2021/01/29 09:31:43;;;;;;;3.05;1.00;;;11.60;65.70;;;;;;4996466;28;20265;-79
2021/01/29 09:34:17;;;;;;;4.88;1.65;;;11.60;62.50;;;;;;5002856;28;20291;-81
2021/01/29 09:36:50;;;;;;;2.03;1.20;;;11.60;60.10;;;;;;5003804;28;20216;-82
2021/01/29 09:39:22;;;;;;;2.42;1.05;;;11.50;60.60;;;;;;5007027;28;20236;-83
2021/01/29 09:41:56;;;;;;;5.00;1.15;;;11.50;60.00;;;;;;5003549;28;20696;-82
2021/01/29 09:44:29;;;;;;;4.63;1.50;;;11.40;60.50;;;;;;5004008;28;20215;-82
2021/01/29 09:46:59;;;;;;;2.97;1.42;;;11.40;60.00;;;;;;5002514;28;20653;-81
2021/01/29 09:49:28;;;;;;;5.88;1.45;;;11.50;60.00;;;;;;5005015;28;20219;-81
2021/01/29 09:52:05;;;;;;;5.30;1.25;;;11.50;58.00;;;;;;5013313;28;20308;-82
2021/01/29 09:54:44;;;;;;;8.02;1.23;;;11.60;58.00;;;;;;5001003;28;20228;-82
2021/01/29 09:57:17;;;;;;;7.00;1.33;;;11.60;55.50;;;;;;4987524;28;20228;-82
2021/01/29 10:00:02;;;;;;;5.78;1.42;;;11.60;55.50;;;;;;4982825;28;20213;-81
2021/01/29 10:02:40;;;;;;;4.05;1.38;;;11.70;55.60;;;;;;5000800;28;20251;-82
2021/01/29 10:05:33;;;;;;;1.95;0.98;;;11.70;55.60;;;;;;5000104;28;20434;-81
2021/01/29 10:08:08;;;;;;;7.85;1.73;;;11.80;53.00;;;;;;4979608;28;20232;-80
2021/01/29 10:10:47;;;;;;;6.28;1.40;;;11.90;52.80;;;;;;4987275;28;20241;-83
2021/01/29 10:13:40;;;;;;;5.07;1.60;;;11.90;53.50;;;;;;4997775;28;20674;-84
2021/01/29 10:16:32;;;;;;;2.45;1.40;;;12.00;52.50;;;;;;4996930;28;20197;-85
2021/01/29 10:19:19;;;;;;;4.18;1.60;;;12.10;51.90;;;;;;4985255;28;20209;-81
2021/01/29 10:22:18;;;;;;;5.35;1.27;;;12.30;52.10;;;;;;5001062;28;20243;-82
2021/01/29 10:24:54;;;;;;;5.40;1.20;;;12.40;52.80;;;;;;5007445;28;20605;-82
2021/01/29 10:27:26;;;;;;;9.45;1.63;;;12.40;52.90;;;;;;4966243;29;20217;-82
2021/01/29 10:30:01;;;;;;;2.15;1.15;;;12.20;52.30;;;;;;4983403;28;20209;-83
2021/01/29 10:32:33;;;;;;;1.52;1.30;;;12.20;54.00;;;;;;4990947;28;20766;-83
2021/01/29 10:35:06;;;;;;;6.65;1.63;;;12.30;54.20;;;;;;4988875;28;20264;-83
2021/01/29 10:37:39;;;;;;;3.33;1.30;;;12.30;54.80;;;;;;4984504;28;20221;-81
2021/01/29 10:40:18;;;;;;;9.02;1.80;;;12.30;54.20;;;;;;4995387;28;20288;-82
2021/01/29 10:42:52;;;;;;;1.95;1.30;;;12.30;53.70;;;;;;5002419;28;20196;-81
2021/01/29 10:45:30;;;;;;;2.90;1.30;;;12.40;53.00;;;;;;5003282;28;20212;-82
2021/01/29 10:48:06;;;;;;;7.38;1.67;;;12.50;51.60;;;;;;5002614;28;20625;-82
2021/01/29 10:50:43;;;;;;;3.55;0.80;;;12.60;51.10;;;;;;5045284;23;21651;-82
2021/01/29 10:53:15;;;;;;;5.55;1.55;;;12.70;50.30;;;;;;5045571;28;20237;-82
2021/01/29 10:55:50;;;;;;;3.47;1.42;;;12.80;49.30;;;;;;5046224;28;20309;-82
2021/01/29 10:58:46;;;;;;;3.55;1.60;;;12.70;48.30;;;;;;5054334;28;20183;-78
2021/01/29 11:01:23;;;;;;;2.55;1.38;;;12.50;48.50;;;;;;5057724;28;20208;-80
2021/01/29 11:03:56;;;;;;;5.75;1.55;;;12.40;48.80;;;;;;5057755;28;20226;-82
2021/01/29 11:06:30;;;;;;;4.28;1.40;;;12.40;49.20;;;;;;5047421;28;20202;-83
2021/01/29 11:09:00;;;;;;;5.55;1.63;;;12.30;51.10;;;;;;5043971;28;20199;-82
2021/01/29 11:11:33;;;;;;;10.25;2.33;;;12.20;51.30;;;;;;5041891;28;20222;-82
2021/01/29 11:14:11;;;;;;;3.40;1.13;;;12.20;51.30;;;;;;5044909;28;20188;-85
2021/01/29 11:16:48;;;;;;;3.97;1.40;;;12.20;53.30;;;;;;5024920;28;20611;-83
2021/01/29 11:19:21;;;;;;;4.40;1.33;;;12.20;52.90;;;;;;5041522;28;20222;-80
2021/01/29 11:22:04;;;;;;;4.32;1.38;;;12.30;53.20;;;;;;5039979;28;20415;-83
2021/01/29 11:24:39;;;;;;;4.78;1.55;;;12.40;51.50;;;;;;5039955;28;20222;-82
2021/01/29 11:27:18;;;;;;;5.25;1.42;;;12.50;51.60;;;;;;5024105;28;20199;-84
2021/01/29 11:29:53;;;;;;;4.40;1.85;;;12.60;51.70;;;;;;5031366;28;20287;-82
2021/01/29 11:32:32;;;;;;;7.78;1.60;;;12.70;51.80;;;;;;5052486;28;20315;-82
2021/01/29 11:35:17;;;;;;;4.70;1.35;;;12.60;51.70;;;;;;5047966;28;20200;-82
2021/01/29 11:38:07;;;;;;;4.75;1.33;;;12.40;51.50;;;;;;5035138;28;20188;-81
2021/01/29 11:40:39;;;;;;;4.93;1.38;;;12.20;51.30;;;;;;5044644;28;20222;-80
2021/01/29 11:43:11;;;;;;;5.63;1.00;;;12.10;51.20;;;;;;5056836;28;20207;-83
2021/01/29 11:45:45;;;;;;;3.78;1.10;;;12.10;51.20;;;;;;5041190;28;20622;-81
2021/01/29 11:48:17;;;;;;;7.00;1.92;;;12.00;51.00;;;;;;5054052;28;20290;-81
2021/01/29 11:50:55;;;;;;;4.30;1.30;;;12.10;51.20;;;;;;5057283;28;20214;-83
2021/01/29 11:53:32;;;;;;;4.65;1.40;;;12.20;51.90;;;;;;5057533;28;20183;-83
2021/01/29 11:56:05;;;;;;;8.25;1.50;;;12.20;52.50;;;;;;5038444;28;20196;-81
2021/01/29 11:58:37;;;;;;;6.68;1.73;;;12.30;51.80;;;;;;5036293;28;20191;-82
2021/01/29 12:01:11;;;;;;;8.32;1.60;;;12.40;50.70;;;;;;5037227;28;20274;-82
2021/01/29 12:03:46;;;;;;;4.22;1.85;;;12.40;49.30;;;;;;5032716;28;20227;-83
2021/01/29 12:06:21;;;;;;;5.93;1.13;;;12.40;49.10;;;;;;5030008;28;20211;-85
2021/01/29 12:09:02;;;;;;;2.92;1.40;;;12.50;48.40;;;;;;5024819;28;20230;-83
2021/01/29 12:11:40;;;;;;;9.32;1.52;;;12.40;46.60;;;;;;5027384;28;20223;-81
2021/01/29 12:14:18;;;;;;;7.50;1.80;;;12.50;47.50;;;;;;5029667;28;20242;-82
2021/01/29 12:16:53;;;;;;;6.28;1.65;;;12.40;47.90;;;;;;5030440;28;20196;-82
2021/01/29 12:19:28;;;;;;;6.35;2.05;;;12.30;51.30;;;;;;5030172;28;20226;-81
2021/01/29 12:22:08;;;;;;;4.43;1.52;;;12.10;52.90;;;;;;5027862;28;20259;-82
2021/01/29 12:24:45;;;;;;;6.05;2.05;;;11.90;55.40;;;;;;5025832;28;20254;-83
2021/01/29 12:27:17;;;;;;;5.22;1.50;;;11.80;57.30;;;;;;5024492;28;20192;-82
2021/01/29 12:29:52;;;;;;;5.95;1.40;;;11.60;60.10;;;;;;5027165;28;20231;-82
2021/01/29 12:33:04;;;;;;;3.90;2.05;;;11.20;64.30;;;;;;5027252;28;20262;-81
2021/01/29 12:35:39;;;;;;;7.53;1.60;;;11.00;66.20;;;;;;5041925;28;20295;-83
2021/01/29 12:38:30;;;;;;;4.13;1.50;;;10.90;68.40;;;;;;5046870;28;20229;-82
2021/01/29 12:41:10;;;;;;;6.88;1.50;;;10.80;66.80;;;;;;5027511;28;20259;-83
2021/01/29 12:43:48;;;;;;;3.78;1.30;;;10.90;67.40;;;;;;5028571;28;20247;-82
2021/01/29 12:46:24;;;;;;;4.10;1.55;;;10.90;66.70;;;;;;5046525;28;20217;-81
2021/01/29 12:48:58;;;;;;;6.00;1.10;;;10.80;66.80;;;;;;5057787;28;20258;-79
2021/01/29 12:51:31;;;;;;;4.13;1.17;;;10.80;66.40;;;;;;5039845;28;20235;-81
2021/01/29 12:54:08;;;;;;;2.45;0.80;;;10.90;65.70;;;;;;5029324;28;20271;-83
2021/01/29 12:56:59;;;;;;;1.90;1.05;;;11.00;65.10;;;;;;5046685;28;20195;-80
2021/01/29 12:59:37;;;;;;;9.40;1.45;;;11.00;66.20;;;;;;5047350;28;20216;-81
2021/01/29 13:02:15;;;;;;;4.20;1.73;;;11.10;67.00;;;;;;5047382;28;20614;-81
2021/01/29 13:04:47;;;;;;;1.58;1.10;;;11.10;67.40;;;;;;5044407;28;20306;-81
2021/01/29 13:07:16;;;;;;;1.10;0.90;;;11.30;67.10;;;;;;5032941;28;20211;-80
2021/01/29 13:10:24;;;;;;;2.80;1.50;;;11.50;65.70;;;;;;5046061;28;20211;-83
2021/01/29 13:13:00;;;;;;;3.78;0.90;;;11.70;64.70;;;;;;5027804;28;20559;-81
2021/01/29 13:15:43;;;;;;;4.93;1.13;;;11.70;63.90;;;;;;5033860;28;20194;-81
2021/01/29 13:18:16;;;;;;;4.30;1.40;;;11.70;63.50;;;;;;5030452;28;20269;-81
2021/01/29 13:20:47;;;;;;;4.50;1.25;;;11.50;63.60;;;;;;5044636;28;20230;-82
2021/01/29 13:23:21;;;;;;;4.38;1.30;;;11.30;64.40;;;;;;5045132;28;20215;-81
2021/01/29 13:25:58;;;;;;;3.42;1.50;;;11.20;66.00;;;;;;5033244;28;20203;-82
2021/01/29 13:28:27;;;;;;;5.03;1.33;;;11.30;66.40;;;;;;5026753;28;20208;-84
2021/01/29 13:30:53;;;;;;;1.35;0.90;;;11.30;64.80;;;;;;5024998;28;20220;-82
2021/01/29 13:33:25;;;;;;;6.53;1.30;;;11.30;64.50;;;;;;5025721;28;20196;-81
2021/01/29 13:36:04;;;;;;;1.48;0.70;;;11.20;64.90;;;;;;5035463;28;20231;-80
2021/01/29 13:38:33;;;;;;;5.53;1.35;;;11.20;65.40;;;;;;5036144;28;20196;-83
2021/01/29 13:41:10;;;;;;;7.43;1.35;;;11.10;64.60;;;;;;5030123;28;20607;-82
2021/01/29 13:43:37;;;;;;;3.33;1.42;;;11.00;65.60;;;;;;5026204;28;20338;-82
2021/01/29 13:46:06;;;;;;;4.53;1.20;;;10.80;68.30;;;;;;5026787;28;20377;-82
2021/01/29 13:48:33;;;;;;;4.82;1.35;;;10.80;69.40;;;;;;5027441;28;20219;-81
2021/01/29 13:51:01;;;;;;;4.32;1.25;;;10.60;71.50;;;;;;5030198;28;20236;-81